createdAt,value
2023-05-12T00:00:17.850Z,1.17
2023-05-12T00:02:47.893Z,1.37
2023-05-12T00:05:17.987Z,1.40
2023-05-12T00:07:48.927Z,1.43
2023-05-12T00:10:21.395Z,1.20
2023-05-12T00:12:51.831Z,1.37
2023-05-12T00:15:22.011Z,1.33
2023-05-12T00:17:53.135Z,0.80
2023-05-12T00:20:23.528Z,1.53
2023-05-12T00:22:53.996Z,1.07
2023-05-12T00:25:25.679Z,1.37
2023-05-12T00:27:55.671Z,0.90
2023-05-12T00:30:24.915Z,0.97
2023-05-12T00:32:54.655Z,0.90
2023-05-12T00:35:26.599Z,1.13
2023-05-12T00:37:57.030Z,1.10
2023-05-12T00:40:28.479Z,1.07
2023-05-12T00:42:59.441Z,0.70
2023-05-12T00:45:30.004Z,1.57
2023-05-12T00:48:00.165Z,1.17
2023-05-12T00:50:30.079Z,0.93
2023-05-12T00:53:02.541Z,0.77
2023-05-12T00:55:33.910Z,0.93
2023-05-12T00:58:04.094Z,1.20
2023-05-12T01:00:35.003Z,0.80
2023-05-12T01:03:06.009Z,1.03
2023-05-12T01:05:41.334Z,0.80
2023-05-12T01:08:11.477Z,0.97
2023-05-12T01:10:46.288Z,0.73
2023-05-12T01:13:16.253Z,0.87
2023-05-12T01:15:49.529Z,0.63
2023-05-12T01:18:22.381Z,0.63
2023-05-12T01:20:53.945Z,0.83
2023-05-12T01:23:29.678Z,0.70
2023-05-12T01:26:07.212Z,0.80
2023-05-12T01:28:38.345Z,0.60
2023-05-12T01:31:10.342Z,1.10
2023-05-12T01:33:42.857Z,1.13
2023-05-12T01:36:13.852Z,0.77
2023-05-12T01:38:43.286Z,0.60
2023-05-12T01:41:15.222Z,1.03
2023-05-12T01:43:46.373Z,0.60
2023-05-12T01:46:16.779Z,0.93
2023-05-12T01:48:47.373Z,0.77
2023-05-12T01:51:18.925Z,0.97
2023-05-12T01:53:48.726Z,0.70
2023-05-12T01:56:20.652Z,0.73
2023-05-12T01:58:51.119Z,0.90
2023-05-12T02:01:21.650Z,0.80
2023-05-12T02:03:52.248Z,0.40
2023-05-12T02:06:23.134Z,0.80
2023-05-12T02:08:53.376Z,0.83
2023-05-12T02:11:25.930Z,0.70
2023-05-12T02:13:56.648Z,0.60
2023-05-12T02:16:26.506Z,0.70
2023-05-12T02:18:56.166Z,1.00
2023-05-12T02:21:28.104Z,0.60
2023-05-12T02:23:58.220Z,0.80
2023-05-12T02:26:30.090Z,0.87
2023-05-12T02:29:00.179Z,0.80
2023-05-12T02:31:30.174Z,0.60
2023-05-12T02:34:02.171Z,0.63
2023-05-12T02:36:34.280Z,0.50
2023-05-12T02:39:04.259Z,0.70
2023-05-12T02:41:36.234Z,0.73
2023-05-12T02:44:06.655Z,0.70
2023-05-12T02:46:37.733Z,0.70
2023-05-12T02:49:07.813Z,0.70
2023-05-12T02:51:38.284Z,0.60
2023-05-12T02:54:08.494Z,0.83
2023-05-12T02:56:40.527Z,0.80
2023-05-12T02:59:10.373Z,0.60
2023-05-12T03:01:41.731Z,0.80
2023-05-12T03:04:11.780Z,0.77
2023-05-12T03:06:41.530Z,0.80
2023-05-12T03:09:11.789Z,0.90
2023-05-12T03:11:43.809Z,0.60
2023-05-12T03:14:13.807Z,1.00
2023-05-12T03:16:43.880Z,1.17
2023-05-12T03:19:13.745Z,0.90
2023-05-12T03:21:44.063Z,0.90
2023-05-12T03:24:14.498Z,0.80
2023-05-12T03:26:46.514Z,0.60
2023-05-12T03:29:16.828Z,1.17
2023-05-12T03:31:47.368Z,0.90
2023-05-12T03:34:17.357Z,0.80
2023-05-12T03:36:47.009Z,1.00
2023-05-12T03:39:17.784Z,0.70
2023-05-12T03:41:49.784Z,1.00
2023-05-12T03:44:20.067Z,1.00
2023-05-12T03:46:50.397Z,1.00
2023-05-12T03:49:20.432Z,1.00
2023-05-12T03:51:51.183Z,0.83
2023-05-12T03:54:21.925Z,1.23
2023-05-12T03:56:54.900Z,1.30
2023-05-12T03:59:25.057Z,0.90
2023-05-12T04:01:55.359Z,1.37
2023-05-12T04:04:24.881Z,1.20
2023-05-12T04:06:55.673Z,1.07
2023-05-12T04:09:25.684Z,1.27
2023-05-12T04:11:59.832Z,1.00
2023-05-12T04:14:41.801Z,1.43
2023-05-12T04:17:13.526Z,0.90
2023-05-12T04:19:43.989Z,1.30
2023-05-12T04:22:13.686Z,1.00
2023-05-12T04:24:43.565Z,1.33
2023-05-12T04:27:15.117Z,1.27
2023-05-12T04:29:44.758Z,1.10
2023-05-12T04:32:14.776Z,0.97
2023-05-12T04:34:45.965Z,0.83
2023-05-12T04:37:16.819Z,0.93
2023-05-12T04:39:47.010Z,1.07
2023-05-12T04:42:19.036Z,1.13
2023-05-12T04:44:49.355Z,1.10
2023-05-12T04:47:19.971Z,1.00
2023-05-12T04:49:50.984Z,1.23
2023-05-12T04:52:21.528Z,0.90
2023-05-12T04:54:52.853Z,1.20
2023-05-12T04:57:24.770Z,0.90
2023-05-12T05:00:05.267Z,0.83
2023-05-12T05:02:37.713Z,1.03
2023-05-12T05:05:09.540Z,0.90
2023-05-12T05:07:40.369Z,0.90
2023-05-12T05:10:13.785Z,1.17
2023-05-12T05:12:45.811Z,1.00
2023-05-12T05:15:15.539Z,1.10
2023-05-12T05:17:49.656Z,0.93
2023-05-12T05:20:20.263Z,0.87
2023-05-12T05:22:51.139Z,1.10
2023-05-12T05:25:21.547Z,0.83
2023-05-12T05:27:54.122Z,1.10
2023-05-12T05:30:24.418Z,0.70
2023-05-12T05:32:55.114Z,0.80
2023-05-12T05:35:25.084Z,1.07
2023-05-12T05:37:55.663Z,1.37
2023-05-12T05:40:25.507Z,1.40
2023-05-12T05:42:58.367Z,0.80
2023-05-12T05:45:28.547Z,0.97
2023-05-12T05:47:58.545Z,0.93
2023-05-12T05:50:28.373Z,0.70
2023-05-12T05:52:58.553Z,0.80
2023-05-12T05:55:28.721Z,0.90
2023-05-12T05:57:59.735Z,1.30
2023-05-12T06:00:30.016Z,0.80
2023-05-12T06:02:59.973Z,1.43
2023-05-12T06:05:30.313Z,0.73
2023-05-12T06:08:01.578Z,0.67
2023-05-12T06:10:31.466Z,0.90
2023-05-12T06:13:04.942Z,0.90
2023-05-12T06:15:36.581Z,0.53
2023-05-12T06:18:07.560Z,0.73
2023-05-12T06:20:37.789Z,0.80
2023-05-12T06:23:20.860Z,0.83
2023-05-12T06:25:51.404Z,1.03
2023-05-12T06:28:23.108Z,0.70
2023-05-12T06:30:55.538Z,0.60
2023-05-12T06:33:26.473Z,0.83
2023-05-12T06:35:58.851Z,1.00
2023-05-12T06:38:29.877Z,0.90
2023-05-12T06:41:00.480Z,0.70
2023-05-12T06:43:32.996Z,0.67
2023-05-12T06:46:03.734Z,1.23
2023-05-12T06:48:34.931Z,1.00
2023-05-12T06:51:06.305Z,1.10
2023-05-12T06:53:38.015Z,0.70
2023-05-12T06:56:11.981Z,0.70
2023-05-12T06:58:45.754Z,0.80
2023-05-12T07:01:17.471Z,0.90
2023-05-12T07:03:48.144Z,1.20
2023-05-12T07:06:18.621Z,0.90
2023-05-12T07:08:49.489Z,0.90
2023-05-12T07:11:20.485Z,0.90
2023-05-12T07:13:53.153Z,0.90
2023-05-12T07:16:22.918Z,0.80
2023-05-12T07:18:53.624Z,0.93
2023-05-12T07:21:24.671Z,0.83
2023-05-12T07:23:54.092Z,0.80
2023-05-12T07:26:25.512Z,0.57
2023-05-12T07:28:57.038Z,0.90
2023-05-12T07:31:27.048Z,1.00
2023-05-12T07:33:57.504Z,0.57
2023-05-12T07:36:28.770Z,0.60
2023-05-12T07:39:00.256Z,0.90
2023-05-12T07:41:34.616Z,0.60
2023-05-12T07:44:07.777Z,0.50
2023-05-12T07:46:38.856Z,0.60
2023-05-12T07:49:09.492Z,0.60
2023-05-12T07:51:40.225Z,0.60
2023-05-12T07:54:10.806Z,0.70
2023-05-12T07:56:41.456Z,0.47
2023-05-12T07:59:14.952Z,0.67
2023-05-12T08:01:45.631Z,0.70
2023-05-12T08:04:16.689Z,0.60
2023-05-12T08:06:46.630Z,0.70
2023-05-12T08:09:16.559Z,0.70
2023-05-12T08:11:48.736Z,1.20
2023-05-12T08:14:26.262Z,0.57
2023-05-12T08:16:56.716Z,0.57
2023-05-12T08:19:27.023Z,0.60
2023-05-12T08:21:59.008Z,0.60
2023-05-12T08:24:29.671Z,0.50
2023-05-12T08:26:59.258Z,0.70
2023-05-12T08:29:31.958Z,0.73
2023-05-12T08:32:02.330Z,1.00
2023-05-12T08:34:32.701Z,0.57
2023-05-12T08:37:03.259Z,0.70
2023-05-12T08:39:34.763Z,0.90
2023-05-12T08:42:14.458Z,0.50
2023-05-12T08:44:45.638Z,0.60
2023-05-12T08:47:15.951Z,0.90
2023-05-12T08:49:47.277Z,0.70
2023-05-12T08:52:22.315Z,0.60
2023-05-12T08:54:56.619Z,0.40
2023-05-12T08:57:28.722Z,0.70
2023-05-12T09:00:01.389Z,1.00
2023-05-12T09:02:44.977Z,0.60
2023-05-12T09:05:23.024Z,0.77
2023-05-12T09:07:55.056Z,0.90
2023-05-12T09:10:35.013Z,0.93
2023-05-12T09:13:08.776Z,0.63
2023-05-12T09:15:45.973Z,0.60
2023-05-12T09:18:15.621Z,1.47
2023-05-12T09:20:46.579Z,0.90
2023-05-12T09:23:22.771Z,0.90
2023-05-12T09:26:04.439Z,0.57
2023-05-12T09:28:39.695Z,0.90
2023-05-12T09:31:25.176Z,1.00
2023-05-12T09:33:55.848Z,0.63
2023-05-12T09:36:31.086Z,0.90
2023-05-12T09:39:05.310Z,0.57
2023-05-12T09:41:38.825Z,0.70
2023-05-12T09:44:10.129Z,0.77
2023-05-12T09:46:42.460Z,1.00
2023-05-12T09:49:13.554Z,0.60
2023-05-12T09:51:44.539Z,0.93
2023-05-12T09:54:15.498Z,0.77
2023-05-12T09:56:46.440Z,0.70
2023-05-12T09:59:17.194Z,0.63
2023-05-12T10:01:49.809Z,0.97
2023-05-12T10:04:20.447Z,0.80
2023-05-12T10:06:51.548Z,1.10
2023-05-12T10:09:24.640Z,0.80
2023-05-12T10:11:56.852Z,0.60
2023-05-12T10:14:27.591Z,1.13
2023-05-12T10:17:01.950Z,0.87
2023-05-12T10:19:33.134Z,0.90
2023-05-12T10:22:04.080Z,0.60
2023-05-12T10:24:33.729Z,0.50
2023-05-12T10:27:03.978Z,0.60
2023-05-12T10:29:34.767Z,0.53
2023-05-12T10:32:10.951Z,0.90
2023-05-12T10:34:44.684Z,0.80
2023-05-12T10:37:16.358Z,0.80
2023-05-12T10:39:50.833Z,0.80
2023-05-12T10:42:27.631Z,1.03
2023-05-12T10:44:59.642Z,0.97
2023-05-12T10:47:39.910Z,0.93
2023-05-12T10:50:16.992Z,0.97
2023-05-12T10:52:55.662Z,1.00
2023-05-12T10:55:35.352Z,0.90
2023-05-12T10:58:12.550Z,0.70
2023-05-12T11:00:49.629Z,0.60
2023-05-12T11:03:28.900Z,0.63
2023-05-12T11:06:05.192Z,0.70
2023-05-12T11:08:36.197Z,0.77
2023-05-12T11:11:09.037Z,1.00
2023-05-12T11:13:39.582Z,0.63
2023-05-12T11:16:14.124Z,0.53
2023-05-12T11:18:45.848Z,0.83
2023-05-12T11:21:16.546Z,0.70
2023-05-12T11:23:53.184Z,0.43
2023-05-12T11:26:23.864Z,0.67
2023-05-12T11:28:54.293Z,0.80
2023-05-12T11:31:24.921Z,0.70
2023-05-12T11:34:13.187Z,0.70
2023-05-12T11:36:46.773Z,0.77
2023-05-12T11:39:19.111Z,0.87
2023-05-12T11:41:51.374Z,1.03
2023-05-12T11:44:24.676Z,1.13
2023-05-12T11:46:59.640Z,1.43
2023-05-12T11:49:33.788Z,1.00
2023-05-12T11:52:04.794Z,0.63
2023-05-12T11:54:35.523Z,0.70
2023-05-12T11:57:07.011Z,1.07
2023-05-12T11:59:37.867Z,0.80
2023-05-12T12:02:08.387Z,1.00
2023-05-12T12:04:43.660Z,1.13
2023-05-12T12:07:14.043Z,0.87
2023-05-12T12:09:44.479Z,0.80
2023-05-12T12:12:14.998Z,0.97
2023-05-12T12:14:47.408Z,0.87
2023-05-12T12:17:18.030Z,1.10
2023-05-12T12:19:53.951Z,0.90
2023-05-12T12:22:25.912Z,0.93
2023-05-12T12:24:56.963Z,0.77
2023-05-12T12:27:26.743Z,1.10
2023-05-12T12:29:57.414Z,0.70
2023-05-12T12:32:28.889Z,1.07
2023-05-12T12:35:07.740Z,1.20
2023-05-12T12:37:38.200Z,1.20
2023-05-12T12:40:10.662Z,1.20
2023-05-12T12:42:42.382Z,1.33
2023-05-12T12:45:15.608Z,1.50
2023-05-12T12:47:48.360Z,0.90
2023-05-12T12:50:21.743Z,1.20
2023-05-12T12:52:52.476Z,1.43
2023-05-12T12:55:23.303Z,1.20
2023-05-12T12:57:56.238Z,1.50
2023-05-12T13:00:27.335Z,1.53
2023-05-12T13:02:57.519Z,1.67
2023-05-12T13:05:30.908Z,1.50
2023-05-12T13:08:01.835Z,1.40
2023-05-12T13:10:32.994Z,1.40
2023-05-12T13:13:03.253Z,1.70
2023-05-12T13:15:33.849Z,1.17
2023-05-12T13:18:03.738Z,1.73
2023-05-12T13:20:36.365Z,1.43
2023-05-12T13:23:06.723Z,1.43
2023-05-12T13:25:37.553Z,1.20
2023-05-12T13:28:08.495Z,1.60
2023-05-12T13:30:38.584Z,1.43
2023-05-12T13:33:08.893Z,1.17
2023-05-12T13:35:41.794Z,1.00
2023-05-12T13:38:12.093Z,1.73
2023-05-12T13:40:43.488Z,1.60
2023-05-12T13:43:13.969Z,1.03
2023-05-12T13:45:44.722Z,1.03
2023-05-12T13:48:17.717Z,1.07
2023-05-12T13:50:52.100Z,2.03
2023-05-12T13:53:22.674Z,1.10
2023-05-12T13:55:54.681Z,1.30
2023-05-12T13:58:24.898Z,2.00
2023-05-12T14:00:58.319Z,1.63
2023-05-12T14:03:29.773Z,1.57
2023-05-12T14:06:01.788Z,1.63
2023-05-12T14:08:32.414Z,1.73
2023-05-12T14:11:05.516Z,1.83
2023-05-12T14:13:37.069Z,1.80
2023-05-12T14:16:09.251Z,2.30
2023-05-12T14:18:41.964Z,1.53
2023-05-12T14:21:16.710Z,1.70
2023-05-12T14:23:49.304Z,1.63
2023-05-12T14:26:22.141Z,2.30
2023-05-12T14:28:55.721Z,1.50
2023-05-12T14:31:27.254Z,1.77
2023-05-12T14:33:58.901Z,1.70
2023-05-12T14:36:31.316Z,2.00
2023-05-12T14:39:04.163Z,2.10
2023-05-12T14:41:34.534Z,2.00
2023-05-12T14:44:04.933Z,1.80
2023-05-12T14:46:36.503Z,2.10
2023-05-12T14:49:10.906Z,1.90
2023-05-12T14:51:44.321Z,1.93
2023-05-12T14:54:24.830Z,1.47
2023-05-12T14:56:56.324Z,1.60
2023-05-12T14:59:27.455Z,2.23
2023-05-12T15:01:58.959Z,1.57
2023-05-12T15:04:29.446Z,1.80
2023-05-12T15:07:02.489Z,2.20
2023-05-12T15:09:33.200Z,1.80
2023-05-12T15:12:04.861Z,2.30
2023-05-12T15:14:35.980Z,1.60
2023-05-12T15:17:07.415Z,1.57
2023-05-12T15:19:38.043Z,1.63
2023-05-12T15:22:11.431Z,1.10
2023-05-12T15:24:41.190Z,1.73
2023-05-12T15:27:12.521Z,1.40
2023-05-12T15:29:43.286Z,1.27
2023-05-12T15:32:14.769Z,1.53
2023-05-12T15:34:47.031Z,1.40
2023-05-12T15:37:19.956Z,1.53
2023-05-12T15:39:51.904Z,1.30
2023-05-12T15:42:26.604Z,1.50
2023-05-12T15:45:03.123Z,1.43
2023-05-12T15:47:34.470Z,1.30
2023-05-12T15:50:06.963Z,1.40
2023-05-12T15:52:38.729Z,1.50
2023-05-12T15:55:10.357Z,1.40
2023-05-12T15:57:40.873Z,1.30
2023-05-12T16:00:13.863Z,1.20
2023-05-12T16:02:44.889Z,1.30
2023-05-12T16:05:15.609Z,1.10
2023-05-12T16:07:48.847Z,1.30
2023-05-12T16:10:20.201Z,1.00
2023-05-12T16:12:50.506Z,1.50
2023-05-12T16:15:21.730Z,1.10
2023-05-12T16:17:53.026Z,1.97
2023-05-12T16:20:24.025Z,1.20
2023-05-12T16:22:57.532Z,1.43
2023-05-12T16:25:29.683Z,1.20
2023-05-12T16:27:59.751Z,1.10
2023-05-12T16:30:31.032Z,1.40
2023-05-12T16:33:02.435Z,1.73
2023-05-12T16:35:33.441Z,1.47
2023-05-12T16:38:09.780Z,1.60
2023-05-12T16:40:40.366Z,1.43
2023-05-12T16:43:10.495Z,1.67
2023-05-12T16:45:40.942Z,1.93
2023-05-12T16:48:11.309Z,1.27
2023-05-12T16:50:41.659Z,1.80
2023-05-12T16:53:14.390Z,1.30
2023-05-12T16:55:44.726Z,1.33
2023-05-12T16:58:14.593Z,1.50
2023-05-12T17:00:44.925Z,1.77
2023-05-12T17:03:15.606Z,1.60
2023-05-12T17:05:46.964Z,1.97
2023-05-12T17:08:20.062Z,1.70
2023-05-12T17:10:51.632Z,1.40
2023-05-12T17:13:22.759Z,1.63
2023-05-12T17:15:53.918Z,1.43
2023-05-12T17:18:25.269Z,1.47
2023-05-12T17:20:56.896Z,1.17
2023-05-12T17:23:29.935Z,1.60
2023-05-12T17:26:00.570Z,1.50
2023-05-12T17:28:31.015Z,1.53
2023-05-12T17:31:02.009Z,1.40
2023-05-12T17:33:32.277Z,1.20
2023-05-12T17:36:12.338Z,1.57
2023-05-12T17:38:45.904Z,1.80
2023-05-12T17:41:16.677Z,1.23
2023-05-12T17:43:46.891Z,1.77
2023-05-12T17:46:17.665Z,1.20
2023-05-12T17:48:47.646Z,1.20
2023-05-12T17:51:18.454Z,1.37
2023-05-12T17:53:52.093Z,1.90
2023-05-12T17:56:22.576Z,1.20
2023-05-12T17:58:52.804Z,1.20
2023-05-12T18:01:22.369Z,1.40
2023-05-12T18:03:53.904Z,1.60
2023-05-12T18:06:24.490Z,1.40
2023-05-12T18:08:57.479Z,1.17
2023-05-12T18:11:29.623Z,2.00
2023-05-12T18:14:02.328Z,1.70
2023-05-12T18:16:32.254Z,1.53
2023-05-12T18:19:03.471Z,1.70
2023-05-12T18:21:34.078Z,1.60
2023-05-12T18:24:07.015Z,1.30
2023-05-12T18:26:38.408Z,1.40
2023-05-12T18:29:09.801Z,1.77
2023-05-12T18:31:40.206Z,1.67
2023-05-12T18:34:10.232Z,2.30
2023-05-12T18:36:40.718Z,1.50
2023-05-12T18:39:15.170Z,1.40
2023-05-12T18:41:47.023Z,1.60
2023-05-12T18:44:18.220Z,1.80
2023-05-12T18:46:48.384Z,1.40
2023-05-12T18:49:19.104Z,1.03
2023-05-12T18:51:49.039Z,1.27
2023-05-12T18:54:20.468Z,1.60
2023-05-12T18:56:51.658Z,1.60
2023-05-12T18:59:22.576Z,1.87
2023-05-12T19:01:52.500Z,1.27
2023-05-12T19:04:24.036Z,1.23
2023-05-12T19:06:54.802Z,1.53
2023-05-12T19:09:37.690Z,1.27
2023-05-12T19:12:11.862Z,1.17
2023-05-12T19:14:43.986Z,1.30
2023-05-12T19:17:15.816Z,0.90
2023-05-12T19:19:46.986Z,2.03
2023-05-12T19:22:17.008Z,1.23
2023-05-12T19:24:49.404Z,1.37
2023-05-12T19:27:19.972Z,1.60
2023-05-12T19:29:50.954Z,1.50
2023-05-12T19:32:21.416Z,1.60
2023-05-12T19:34:52.950Z,1.20
2023-05-12T19:37:23.334Z,1.20
2023-05-12T19:39:55.907Z,1.40
2023-05-12T19:42:26.229Z,1.20
2023-05-12T19:44:56.354Z,1.67
2023-05-12T19:47:26.696Z,1.20
2023-05-12T19:49:56.684Z,1.20
2023-05-12T19:52:29.600Z,1.10
2023-05-12T19:55:01.533Z,1.47
2023-05-12T19:57:31.444Z,1.40
2023-05-12T20:00:01.398Z,1.20
2023-05-12T20:02:31.561Z,1.30
2023-05-12T20:05:01.633Z,1.20
2023-05-12T20:07:31.814Z,1.37
2023-05-12T20:10:04.262Z,1.30
2023-05-12T20:12:34.098Z,1.07
2023-05-12T20:15:04.046Z,1.50
2023-05-12T20:17:34.342Z,1.53
2023-05-12T20:20:04.938Z,1.40
2023-05-12T20:22:35.418Z,1.53
2023-05-12T20:25:08.167Z,1.30
2023-05-12T20:27:38.899Z,1.40
2023-05-12T20:30:11.280Z,1.40
2023-05-12T20:32:41.317Z,1.20
2023-05-12T20:35:12.586Z,1.40
2023-05-12T20:37:42.965Z,1.80
2023-05-12T20:40:15.032Z,1.60
2023-05-12T20:42:46.875Z,1.50
2023-05-12T20:45:17.930Z,1.40
2023-05-12T20:47:48.544Z,1.27
2023-05-12T20:50:18.884Z,1.57
2023-05-12T20:52:50.198Z,1.20
2023-05-12T20:55:22.579Z,1.40
2023-05-12T20:57:53.447Z,1.80
2023-05-12T21:00:23.854Z,1.70
2023-05-12T21:02:56.211Z,1.47
2023-05-12T21:05:26.415Z,2.20
2023-05-12T21:07:56.065Z,2.20
2023-05-12T21:10:28.025Z,1.63
2023-05-12T21:12:58.605Z,1.60
2023-05-12T21:15:29.625Z,1.67
2023-05-12T21:17:59.948Z,2.00
2023-05-12T21:20:31.002Z,1.80
2023-05-12T21:23:01.206Z,2.10
2023-05-12T21:25:32.820Z,2.07
2023-05-12T21:28:02.761Z,2.00
2023-05-12T21:30:32.731Z,1.93
2023-05-12T21:33:02.577Z,2.70
2023-05-12T21:35:32.965Z,1.80
2023-05-12T21:38:03.136Z,2.23
2023-05-12T21:40:35.962Z,1.80
2023-05-12T21:43:05.722Z,2.00
2023-05-12T21:45:36.378Z,1.80
2023-05-12T21:48:07.455Z,2.27
2023-05-12T21:50:37.728Z,2.27
2023-05-12T21:53:08.161Z,2.00
2023-05-12T21:55:40.436Z,2.20
2023-05-12T21:58:11.067Z,1.83
2023-05-12T22:00:41.368Z,2.43
2023-05-12T22:03:10.911Z,1.50
2023-05-12T22:05:41.927Z,2.00
2023-05-12T22:08:12.744Z,2.40
2023-05-12T22:10:44.234Z,1.70
2023-05-12T22:13:14.194Z,2.00
2023-05-12T22:15:44.480Z,2.03
2023-05-12T22:18:15.286Z,1.70
2023-05-12T22:20:45.862Z,1.97
2023-05-12T22:23:15.861Z,1.50
2023-05-12T22:25:48.310Z,1.90
2023-05-12T22:28:19.110Z,2.20
2023-05-12T22:30:50.080Z,2.63
2023-05-12T22:33:20.110Z,2.10
2023-05-12T22:35:50.554Z,1.97
2023-05-12T22:38:20.157Z,1.83
2023-05-12T22:40:51.895Z,1.70
2023-05-12T22:43:22.536Z,2.30
2023-05-12T22:45:53.746Z,2.27
2023-05-12T22:48:25.524Z,2.23
2023-05-12T22:50:56.785Z,2.10
2023-05-12T22:53:26.633Z,2.50
2023-05-12T22:55:58.046Z,1.73
2023-05-12T22:58:28.515Z,2.63
2023-05-12T23:00:58.270Z,2.10
2023-05-12T23:03:28.572Z,2.57
2023-05-12T23:05:59.134Z,1.97
2023-05-12T23:08:29.718Z,2.20
2023-05-12T23:11:01.932Z,1.93
2023-05-12T23:13:32.195Z,1.73
2023-05-12T23:16:02.971Z,1.93
2023-05-12T23:18:33.690Z,2.13
2023-05-12T23:21:03.439Z,2.10
2023-05-12T23:23:33.987Z,1.80
2023-05-12T23:26:05.679Z,1.77
2023-05-12T23:28:35.971Z,1.83
2023-05-12T23:31:06.190Z,1.30
2023-05-12T23:33:36.745Z,2.10
2023-05-12T23:36:08.725Z,1.50
2023-05-12T23:38:39.238Z,1.87
2023-05-12T23:41:11.788Z,2.00
2023-05-12T23:43:42.725Z,1.87
2023-05-12T23:46:13.747Z,1.80
2023-05-12T23:48:43.618Z,1.60
2023-05-12T23:51:13.398Z,1.90
2023-05-12T23:53:43.079Z,1.47
2023-05-12T23:56:14.247Z,1.37
2023-05-12T23:58:44.502Z,1.50
